Albury
Weather
Information

and Archive.
Albury Local Internet Skycam This service provided and funded by Albury Local Internet

Help keep our weatherstation running:

Lavington Weatherstation live data - Conditions of Use

Last updated on 11-Dec-2017 at 20:46:04
Temperature
  Currently 26.1 degrees C
  Apparent Temperature ("Wind Chill") is 22.7 degrees C
  Today has ranged from 15.1 at 05:34 to 32.2 at 16:15
  Yesterday ranged from 14.2 at 04:59 to 30.0 at 16:59
Wind
  Now:    4.3kmh, gusting to   5.8kmh from 232 degrees ( SW)
  Hour:   6.1kmh, gusting to  13.3kmh
Rainfall
   0.0mm Midnight to Midnight (ie, yesterday)
   0.0mm Since Midnight (ie, so far today)
   0.0mm 9am yesterday to 9am today
  96.0mm Total this month
Misc items
  Relative humidity is 13%
  Dewpoint is -4.5 deg C
  Estimated Cloudbase is 12500 feet
  Barometric Pressure is 1016.0 mbar
  Solar Insolation: 0 W/m^2
  UV Index: 0.0 (Low)
Top Solar flares in the last 24 hours

Last 24 hours Temperature Graph (click graph for history)
temperature

Last 24 hours Dynamic Wind display (click image for 4-hour image):
Wind Rose

Current Yarrawonga Weather Radar and Infrared Satellite Images from the BOM.

Hourly summaries in the tables below are cumulative and peak values
for the preceding hour, and instantaneous values at the hour.
So far today, 11-Dec-2017
Time   Barom.  Wind + Gust    Direction   RH   Rain    Temp.  Minimum    Maximum
01:00  1019.0   5.0   7.9kmh  101 ( E )   29%  0.0mm   20.9  20.9@00:59 22.9@00:00
02:00  1019.0   1.8   8.6kmh   76 (ENE)   47%  0.0mm   18.9  18.8@01:58 20.9@01:00
03:00  1018.0   1.1   8.6kmh  149 (SSE)   52%  0.0mm   17.6  17.7@02:55 19.0@02:17
04:00  1018.0   1.5   8.6kmh  118 (ESE)   66%  0.0mm   16.4  16.3@03:54 17.7@03:01
05:00  1018.0   1.3   7.2kmh  117 (ESE)   68%  0.0mm   16.3  16.1@04:12 17.2@04:36
06:00  1019.0   1.6   8.6kmh  110 (ESE)   70%  0.0mm   16.7  15.1@05:34 17.0@05:50
07:00  1019.0   0.0   0.0kmh  113 (ESE)   73%  0.0mm   17.2  16.2@06:09 17.4@06:41
08:00  1020.0   0.0   0.0kmh  123 (ESE)   65%  0.0mm   19.0  17.2@07:00 19.2@07:56
09:00  1020.0   0.0   0.0kmh  141 ( SE)   60%  0.0mm   21.1  19.0@08:00 21.8@08:56
10:00  1020.0   3.9  10.1kmh  123 (ESE)   49%  0.0mm   24.2  20.8@09:04 23.9@09:58
11:00  1020.0   5.4  14.8kmh  122 (ESE)   29%  0.0mm   26.4  24.0@10:01 27.1@10:43
12:00  1019.0   8.3  17.6kmh  199 (SSW)   15%  0.0mm   28.2  26.3@11:02 28.7@11:51
13:00  1019.0   8.5  20.9kmh  167 (SSE)   15%  0.0mm   29.3  28.0@12:05 29.9@12:49
14:00  1018.0   9.8  19.4kmh  157 (SSE)   15%  0.0mm   29.9  28.8@13:06 30.8@13:43
15:00  1017.0  10.1  20.2kmh  200 (SSW)   14%  0.0mm   31.4  29.7@14:37 31.6@14:57
16:00  1017.0   9.6  21.6kmh  157 (SSE)   14%  0.0mm   30.7  30.1@15:24 31.7@15:01
17:00  1016.0   8.9  16.2kmh  187 ( S )   14%  0.0mm   30.9  30.6@16:01 32.2@16:15
18:00  1016.0  10.2  21.6kmh  131 ( SE)   13%  0.0mm   30.3  30.1@17:29 31.4@17:22
19:00  1016.0   9.4  18.0kmh  181 ( S )   11%  0.0mm   29.4  29.5@18:59 30.6@18:14
20:00  1016.0   8.6  16.9kmh  157 (SSE)   11%  0.0mm   28.2  28.2@19:55 29.4@19:00
20:46  1016.0   6.1  13.3kmh  225 ( SW)   13%  0.0mm   26.1  25.8@20:39 28.2@20:00


Summary for yesterday, 10-Dec-2017
Time   Barom.  Wind + Gust    Direction   RH   Rain    Temp.  Minimum    Maximum
01:00  1020.0   1.6   7.9kmh  214 ( SW)   49%  0.0mm   17.4  17.2@00:31 18.6@00:16
02:00  1020.0   0.0   0.0kmh   94 ( E )   58%  0.0mm   17.2  17.2@01:01 17.9@01:32
03:00  1020.0   0.0   0.0kmh  110 (ESE)   60%  0.0mm   16.2  16.2@02:43 17.2@02:00
04:00  1020.0   0.0   0.0kmh   96 ( E )   67%  0.0mm   15.4  15.3@03:33 16.2@03:00
05:00  1020.0   0.0   0.0kmh  126 ( SE)   74%  0.0mm   14.3  14.2@04:59 15.4@04:00
06:00  1020.0   0.0   0.0kmh  107 (ESE)   76%  0.0mm   14.5  14.2@05:29 14.8@05:02
07:00  1021.0   0.0   0.0kmh  133 ( SE)   78%  0.0mm   15.3  14.3@06:02 15.4@06:46
08:00  1022.0   0.0   0.0kmh  167 (SSE)   67%  0.0mm   17.3  15.2@07:04 17.5@07:56
09:00  1022.0   0.0   0.0kmh  131 ( SE)   54%  0.0mm   20.8  17.3@08:00 20.7@08:45
10:00  1022.0   0.0   0.0kmh   10 ( N )   38%  0.0mm   23.6  20.8@09:00 23.5@09:59
11:00  1022.0   6.9  17.6kmh  284 (WNW)   32%  0.0mm   24.8  23.4@10:03 25.1@10:54
12:00  1022.0   7.4  17.6kmh    9 ( N )   26%  0.0mm   26.0  24.5@11:03 27.0@11:40
13:00  1021.0   9.1  18.0kmh  295 (WNW)   24%  0.0mm   27.2  25.6@12:01 27.7@12:47
14:00  1020.0   8.2  18.7kmh  146 ( SE)   27%  0.0mm   27.4  26.0@13:03 28.3@13:25
15:00  1020.0   8.5  20.2kmh  197 (SSW)   24%  0.0mm   28.4  27.2@14:32 29.2@14:58
16:00  1019.0  10.1  20.9kmh  154 (SSE)   23%  0.0mm   28.7  27.9@15:30 29.7@15:51
17:00  1019.0   8.9  22.3kmh  143 ( SE)   19%  0.0mm   29.7  28.3@16:05 30.0@16:59
18:00  1019.0  10.3  21.6kmh  147 (SSE)   22%  0.0mm   28.5  28.4@17:16 29.7@17:00
19:00  1019.0   9.5  18.0kmh  205 (SSW)   22%  0.0mm   28.5  28.3@18:01 28.9@18:10
20:00  1019.0   8.7  17.6kmh  216 ( SW)   26%  0.0mm   26.7  26.7@19:59 28.5@19:00
21:00  1019.0   7.4  12.6kmh  205 (SSW)   26%  0.0mm   24.6  24.5@20:51 26.7@20:00
22:00  1020.0   6.7  11.2kmh  230 ( SW)   22%  0.0mm   24.2  24.0@21:37 24.6@21:00
23:00  1020.0   6.0  10.1kmh  234 ( SW)   21%  0.0mm   23.6  23.4@22:32 24.2@22:00
00:00  1019.0   6.0   9.4kmh  195 (SSW)   23%  0.0mm   22.9  22.9@23:50 23.7@23:11